createdAt,value
2022-09-26T00:01:35.532Z,11.60
2022-09-26T00:04:07.539Z,11.50
2022-09-26T00:06:35.629Z,11.50
2022-09-26T00:09:05.238Z,11.50
2022-09-26T00:11:34.598Z,11.50
2022-09-26T00:14:05.044Z,11.40
2022-09-26T00:16:33.654Z,11.40
2022-09-26T00:19:02.389Z,11.40
2022-09-26T00:21:31.511Z,11.40
2022-09-26T00:24:02.037Z,11.40
2022-09-26T00:26:33.341Z,11.40
2022-09-26T00:29:04.568Z,11.40
2022-09-26T00:31:35.446Z,11.30
2022-09-26T00:34:04.031Z,11.30
2022-09-26T00:36:38.517Z,11.30
2022-09-26T00:39:09.068Z,11.20
2022-09-26T00:41:38.970Z,11.20
2022-09-26T00:44:54.543Z,11.10
2022-09-26T00:47:35.095Z,11.00
2022-09-26T00:50:05.701Z,10.90
2022-09-26T00:52:37.394Z,10.90
2022-09-26T00:55:08.243Z,10.80
2022-09-26T00:57:41.805Z,10.70
2022-09-26T01:00:12.405Z,10.70
2022-09-26T01:02:41.217Z,10.70
2022-09-26T01:05:11.904Z,10.70
2022-09-26T01:07:40.028Z,10.70
2022-09-26T01:10:08.946Z,10.60
2022-09-26T01:12:39.028Z,10.60
2022-09-26T01:15:09.090Z,10.70
2022-09-26T01:17:38.805Z,10.70
2022-09-26T01:20:21.583Z,10.70
2022-09-26T01:23:21.497Z,10.70
2022-09-26T01:26:37.468Z,10.80
2022-09-26T01:29:45.991Z,10.70
2022-09-26T01:32:46.330Z,10.70
2022-09-26T01:35:22.278Z,10.80
2022-09-26T01:38:03.250Z,10.80
2022-09-26T01:40:38.724Z,10.80
2022-09-26T01:43:13.632Z,10.80
2022-09-26T01:45:54.545Z,10.70
2022-09-26T01:48:31.682Z,10.70
2022-09-26T01:51:05.255Z,10.70
2022-09-26T01:53:41.155Z,10.70
2022-09-26T01:56:14.661Z,10.70
2022-09-26T01:58:48.413Z,10.70
2022-09-26T02:01:18.307Z,10.70
2022-09-26T02:03:51.198Z,10.70
2022-09-26T02:06:23.578Z,10.70
2022-09-26T02:08:55.014Z,10.70
2022-09-26T02:11:23.245Z,10.70
2022-09-26T02:13:56.326Z,10.70
2022-09-26T02:16:28.906Z,10.70
2022-09-26T02:19:00.827Z,10.70
2022-09-26T02:21:28.968Z,10.70
2022-09-26T02:23:56.797Z,10.70
2022-09-26T02:26:25.155Z,10.70
2022-09-26T02:28:53.372Z,10.70
2022-09-26T02:31:24.665Z,10.60
2022-09-26T02:33:55.456Z,10.60
2022-09-26T02:36:25.359Z,10.60
2022-09-26T02:38:53.566Z,10.60
2022-09-26T02:41:29.681Z,10.60
2022-09-26T02:44:15.670Z,10.60
2022-09-26T02:47:15.700Z,10.60
2022-09-26T02:49:57.721Z,10.60
2022-09-26T02:52:37.560Z,10.50
2022-09-26T02:55:16.194Z,10.60
2022-09-26T02:57:53.229Z,10.60
2022-09-26T03:00:25.215Z,10.50
2022-09-26T03:02:59.857Z,10.50
2022-09-26T03:05:30.578Z,10.50
2022-09-26T03:08:04.611Z,10.50
2022-09-26T03:10:34.000Z,10.50
2022-09-26T03:13:07.316Z,10.50
2022-09-26T03:15:36.798Z,10.50
2022-09-26T03:18:08.819Z,10.50
2022-09-26T03:20:37.043Z,10.50
2022-09-26T03:23:06.413Z,10.40
2022-09-26T03:25:34.791Z,10.50
2022-09-26T03:28:03.398Z,10.40
2022-09-26T03:30:31.730Z,10.50
2022-09-26T03:32:59.698Z,10.50
2022-09-26T03:35:27.704Z,10.50
2022-09-26T03:37:55.547Z,10.50
2022-09-26T03:40:24.915Z,10.40
2022-09-26T03:42:53.037Z,10.40
2022-09-26T03:45:21.266Z,10.40
2022-09-26T03:47:49.226Z,10.50
2022-09-26T03:50:17.606Z,10.50
2022-09-26T03:52:45.554Z,10.50
2022-09-26T03:55:13.874Z,10.40
2022-09-26T03:57:43.222Z,10.50
2022-09-26T04:00:12.255Z,10.40
2022-09-26T04:02:40.299Z,10.40
2022-09-26T04:05:09.095Z,10.40
2022-09-26T04:07:36.981Z,10.30
2022-09-26T04:10:05.346Z,10.20
2022-09-26T04:12:33.336Z,10.20
2022-09-26T04:15:02.877Z,10.10
2022-09-26T04:17:30.972Z,10.00
2022-09-26T04:19:59.609Z,9.90
2022-09-26T04:22:27.943Z,9.80
2022-09-26T04:24:56.049Z,9.70
2022-09-26T04:27:27.117Z,9.60
2022-09-26T04:29:57.184Z,9.50
2022-09-26T04:32:26.514Z,9.40
2022-09-26T04:34:54.450Z,9.30
2022-09-26T04:37:22.513Z,9.10
2022-09-26T04:39:50.478Z,9.10
2022-09-26T04:42:18.447Z,9.00
2022-09-26T04:44:46.357Z,8.90
2022-09-26T04:47:14.427Z,8.80
2022-09-26T04:49:43.841Z,8.70
2022-09-26T04:52:13.939Z,8.60
2022-09-26T04:54:41.881Z,8.60
2022-09-26T04:57:09.837Z,8.50
2022-09-26T04:59:37.714Z,8.40
2022-09-26T05:02:08.399Z,8.40
2022-09-26T05:04:36.348Z,8.40
2022-09-26T05:07:05.631Z,8.30
2022-09-26T05:09:36.156Z,8.20
2022-09-26T05:12:04.563Z,8.20
2022-09-26T05:14:34.525Z,8.10
2022-09-26T05:17:02.656Z,8.10
2022-09-26T05:19:30.757Z,8.00
2022-09-26T05:21:58.671Z,8.00
2022-09-26T05:24:45.348Z,8.00
2022-09-26T05:27:14.225Z,8.00
2022-09-26T05:29:42.395Z,8.00
2022-09-26T05:32:10.580Z,8.00
2022-09-26T05:34:38.677Z,8.00
2022-09-26T05:37:06.619Z,8.00
2022-09-26T05:39:53.271Z,8.00
2022-09-26T05:42:21.135Z,8.00
2022-09-26T05:44:49.109Z,8.00
2022-09-26T05:47:18.348Z,8.10
2022-09-26T05:49:46.097Z,8.10
2022-09-26T05:52:14.431Z,8.10
2022-09-26T05:54:43.730Z,8.20
2022-09-26T05:57:12.487Z,8.20
2022-09-26T05:59:40.504Z,8.30
2022-09-26T06:02:09.004Z,8.30
2022-09-26T06:04:37.381Z,8.40
2022-09-26T06:07:05.479Z,8.50
2022-09-26T06:09:33.500Z,8.50
2022-09-26T06:12:03.102Z,8.60
2022-09-26T06:14:32.082Z,8.70
2022-09-26T06:16:59.947Z,8.80
2022-09-26T06:19:27.916Z,8.90
2022-09-26T06:21:55.807Z,9.00
2022-09-26T06:24:23.721Z,9.20
2022-09-26T06:26:51.646Z,9.30
2022-09-26T06:29:20.958Z,9.50
2022-09-26T06:31:49.059Z,9.60
2022-09-26T06:34:17.007Z,9.80
2022-09-26T06:36:47.025Z,9.90
2022-09-26T06:39:15.977Z,10.00
2022-09-26T06:41:43.959Z,10.10
2022-09-26T06:44:11.886Z,10.20
2022-09-26T06:46:41.136Z,10.30
2022-09-26T06:49:09.261Z,10.40
2022-09-26T06:51:38.092Z,10.50
2022-09-26T06:54:06.042Z,10.60
2022-09-26T06:56:34.012Z,10.80
2022-09-26T06:59:02.450Z,10.90
2022-09-26T07:01:30.656Z,11.10
2022-09-26T07:04:00.542Z,11.20
2022-09-26T07:06:28.510Z,11.30
2022-09-26T07:09:07.415Z,11.40
2022-09-26T07:12:09.409Z,11.50
2022-09-26T07:14:25.882Z,11.60
2022-09-26T07:16:53.803Z,11.80
2022-09-26T07:19:23.032Z,12.00
2022-09-26T07:21:50.997Z,12.00
2022-09-26T07:24:19.106Z,12.20
2022-09-26T07:26:47.110Z,12.30
2022-09-26T07:29:15.342Z,12.40
2022-09-26T07:31:43.412Z,12.50
2022-09-26T07:34:14.643Z,12.70
2022-09-26T07:36:47.766Z,12.80
2022-09-26T07:39:16.178Z,12.90
2022-09-26T07:41:46.000Z,12.90
2022-09-26T07:47:19.827Z,13.20
2022-09-26T07:50:05.226Z,13.30
2022-09-26T07:52:34.682Z,13.30
2022-09-26T07:55:02.668Z,13.40
2022-09-26T07:57:33.121Z,13.50
2022-09-26T08:02:37.043Z,13.70
2022-09-26T08:05:06.266Z,14.00
2022-09-26T08:07:36.922Z,14.10
2022-09-26T08:10:09.125Z,14.20
2022-09-26T08:12:38.535Z,14.30
2022-09-26T08:15:08.171Z,14.50
2022-09-26T08:17:36.381Z,14.60
2022-09-26T08:20:05.514Z,14.70
2022-09-26T08:22:34.867Z,14.60
2022-09-26T08:25:06.592Z,14.60
2022-09-26T08:27:35.490Z,14.80
2022-09-26T08:30:04.379Z,14.80
2022-09-26T08:32:33.791Z,15.00
2022-09-26T08:35:01.745Z,15.10
2022-09-26T08:37:31.072Z,15.20
2022-09-26T08:40:01.038Z,15.20
2022-09-26T08:42:43.518Z,15.20
2022-09-26T08:45:48.157Z,15.50
2022-09-26T08:48:36.415Z,15.80
2022-09-26T08:51:13.886Z,16.20
2022-09-26T08:53:46.717Z,16.30
2022-09-26T08:56:21.555Z,16.50
2022-09-26T08:58:53.542Z,16.50
2022-09-26T09:01:28.975Z,16.60
2022-09-26T09:04:03.050Z,16.80
2022-09-26T09:06:31.073Z,17.00
2022-09-26T09:08:59.506Z,17.10
2022-09-26T09:11:51.536Z,17.10
2022-09-26T09:14:36.037Z,17.30
2022-09-26T09:17:18.465Z,17.60
2022-09-26T09:19:57.229Z,17.90
2022-09-26T09:22:41.804Z,17.90
2022-09-26T09:25:16.534Z,17.90
2022-09-26T09:28:02.490Z,17.70
2022-09-26T09:30:40.475Z,17.70
2022-09-26T09:33:14.822Z,17.60
2022-09-26T09:35:47.451Z,17.50
2022-09-26T09:38:18.139Z,17.70
2022-09-26T09:40:53.804Z,18.00
2022-09-26T09:43:31.277Z,17.70
2022-09-26T09:46:05.150Z,17.90
2022-09-26T09:48:33.064Z,18.20
2022-09-26T09:51:13.386Z,18.30
2022-09-26T09:53:56.224Z,18.20
2022-09-26T09:56:36.725Z,18.30
2022-09-26T09:59:23.569Z,17.90
2022-09-26T10:02:00.454Z,18.00
2022-09-26T10:04:35.830Z,17.60
2022-09-26T10:07:05.396Z,17.20
2022-09-26T10:09:40.739Z,17.00
2022-09-26T10:12:16.749Z,16.90
2022-09-26T10:14:52.446Z,16.90
2022-09-26T10:17:22.759Z,16.80
2022-09-26T10:19:51.200Z,16.60
2022-09-26T10:22:25.224Z,16.80
2022-09-26T10:24:55.505Z,16.70
2022-09-26T10:27:35.596Z,16.60
2022-09-26T10:30:21.270Z,16.40
2022-09-26T10:32:56.023Z,16.70
2022-09-26T10:35:26.460Z,16.90
2022-09-26T10:38:01.134Z,17.00
2022-09-26T10:40:48.607Z,17.00
2022-09-26T10:43:30.447Z,16.80
2022-09-26T10:46:05.974Z,16.80
2022-09-26T10:48:47.117Z,16.70
2022-09-26T10:51:29.922Z,16.60
2022-09-26T10:54:04.382Z,16.50
2022-09-26T10:56:37.162Z,16.50
2022-09-26T10:59:09.978Z,16.40
2022-09-26T11:01:43.341Z,16.50
2022-09-26T11:04:35.949Z,16.70
2022-09-26T11:07:05.908Z,16.70
2022-09-26T11:09:34.168Z,16.90
2022-09-26T11:12:23.829Z,16.90
2022-09-26T11:14:56.957Z,17.00
2022-09-26T11:17:43.659Z,17.00
2022-09-26T11:20:18.064Z,17.00
2022-09-26T11:22:50.402Z,16.80
2022-09-26T11:25:26.356Z,16.70
2022-09-26T11:28:02.930Z,16.60
2022-09-26T11:30:34.216Z,16.70
2022-09-26T11:33:08.667Z,16.70
2022-09-26T11:35:46.245Z,16.80
2022-09-26T11:38:25.400Z,16.80
2022-09-26T11:41:36.658Z,16.80
2022-09-26T11:44:21.567Z,16.90
2022-09-26T11:47:04.213Z,16.90
2022-09-26T11:50:00.189Z,16.90
2022-09-26T11:52:49.385Z,16.80
2022-09-26T11:55:24.247Z,17.00
2022-09-26T11:58:03.572Z,17.20
2022-09-26T12:00:41.588Z,17.10
2022-09-26T12:03:36.204Z,17.10
2022-09-26T12:06:22.012Z,16.80
2022-09-26T12:09:25.973Z,16.70
2022-09-26T12:12:03.952Z,16.60
2022-09-26T12:14:44.013Z,16.60
2022-09-26T12:17:21.252Z,16.50
2022-09-26T12:19:58.714Z,16.60
2022-09-26T12:22:36.188Z,16.80
2022-09-26T12:25:32.575Z,16.90
2022-09-26T12:28:10.798Z,17.10
2022-09-26T12:30:45.013Z,17.10
2022-09-26T12:33:38.343Z,17.00
2022-09-26T12:36:18.970Z,16.90
2022-09-26T12:39:04.122Z,16.80
2022-09-26T12:41:57.547Z,16.70
2022-09-26T12:44:48.347Z,16.70
2022-09-26T12:47:50.821Z,16.70
2022-09-26T12:50:31.052Z,16.80
2022-09-26T12:53:31.847Z,16.80
2022-09-26T12:56:08.137Z,16.90
2022-09-26T12:59:00.447Z,17.00
2022-09-26T13:01:50.266Z,17.00
2022-09-26T13:04:55.834Z,17.10
2022-09-26T13:07:42.291Z,17.20
2022-09-26T13:10:39.920Z,17.20
2022-09-26T13:13:40.770Z,17.10
2022-09-26T13:16:23.949Z,17.00
2022-09-26T13:18:56.473Z,17.00
2022-09-26T13:21:35.248Z,17.00
2022-09-26T13:24:13.329Z,17.00
2022-09-26T13:26:45.272Z,17.00
2022-09-26T13:29:19.668Z,17.20
2022-09-26T13:31:55.999Z,17.00
2022-09-26T13:34:31.440Z,16.90
2022-09-26T13:37:01.637Z,16.90
2022-09-26T13:39:35.698Z,16.60
2022-09-26T13:42:10.366Z,16.50
2022-09-26T13:44:55.746Z,16.50
2022-09-26T13:47:36.422Z,16.80
2022-09-26T13:50:16.545Z,16.80
2022-09-26T13:52:52.592Z,16.90
2022-09-26T13:55:22.591Z,16.80
2022-09-26T13:58:03.875Z,16.70
2022-09-26T14:00:41.578Z,16.40
2022-09-26T14:03:46.291Z,16.40
2022-09-26T14:06:32.325Z,16.20
2022-09-26T14:09:24.847Z,16.10
2022-09-26T14:12:08.889Z,16.00
2022-09-26T14:14:45.142Z,16.00
2022-09-26T14:17:58.715Z,15.80
2022-09-26T14:20:29.782Z,15.70
2022-09-26T14:23:01.814Z,15.70
2022-09-26T14:25:56.513Z,15.70
2022-09-26T14:28:33.432Z,15.60
2022-09-26T14:31:23.040Z,15.60
2022-09-26T14:33:56.091Z,15.60
2022-09-26T14:36:31.492Z,15.70
2022-09-26T14:39:01.054Z,15.60
2022-09-26T14:41:32.511Z,15.70
2022-09-26T14:44:03.984Z,15.70
2022-09-26T14:46:35.821Z,15.70
2022-09-26T14:49:06.172Z,15.70
2022-09-26T14:51:37.112Z,15.70
2022-09-26T14:54:09.086Z,15.70
2022-09-26T14:56:42.919Z,15.70
2022-09-26T14:59:45.423Z,15.60
2022-09-26T15:02:39.900Z,15.50
2022-09-26T15:05:19.300Z,15.50
2022-09-26T15:07:49.031Z,15.50
2022-09-26T15:10:42.926Z,15.50
2022-09-26T15:13:26.239Z,15.40
2022-09-26T15:16:02.559Z,15.40
2022-09-26T15:18:37.164Z,15.50
2022-09-26T15:21:12.278Z,15.60
2022-09-26T15:23:52.237Z,15.80
2022-09-26T15:26:24.138Z,15.90
2022-09-26T15:28:53.990Z,15.90
2022-09-26T15:31:25.124Z,15.80
2022-09-26T15:33:58.011Z,15.70
2022-09-26T15:36:30.222Z,15.60
2022-09-26T15:39:01.697Z,15.50
2022-09-26T15:41:48.737Z,15.40
2022-09-26T15:44:20.669Z,15.40
2022-09-26T15:46:50.737Z,15.20
2022-09-26T15:49:24.539Z,15.10
2022-09-26T15:51:55.405Z,15.00
2022-09-26T15:54:28.790Z,14.90
2022-09-26T15:57:02.749Z,14.80
2022-09-26T15:59:40.674Z,14.70
2022-09-26T16:02:23.168Z,14.60
2022-09-26T16:04:53.054Z,14.50
2022-09-26T16:07:24.857Z,14.40
2022-09-26T16:09:53.763Z,14.40
2022-09-26T16:12:25.341Z,14.30
2022-09-26T16:14:59.945Z,14.20
2022-09-26T16:17:32.426Z,14.20
2022-09-26T16:20:04.012Z,14.00
2022-09-26T16:22:40.239Z,14.00
2022-09-26T16:25:24.218Z,13.90
2022-09-26T16:28:01.192Z,13.80
2022-09-26T16:30:43.391Z,13.70
2022-09-26T16:33:32.136Z,13.60
2022-09-26T16:36:06.199Z,13.40
2022-09-26T16:38:35.528Z,13.30
2022-09-26T16:41:09.182Z,13.10
2022-09-26T16:43:39.783Z,13.00
2022-09-26T16:46:10.377Z,12.80
2022-09-26T16:48:40.774Z,12.70
2022-09-26T16:51:17.373Z,12.50
2022-09-26T16:53:46.686Z,12.40
2022-09-26T16:56:17.515Z,12.20
2022-09-26T16:58:50.311Z,12.20
2022-09-26T17:01:37.162Z,12.10
2022-09-26T17:04:05.703Z,12.00
2022-09-26T17:06:37.278Z,11.90
2022-09-26T17:09:15.294Z,11.90
2022-09-26T17:11:47.352Z,11.80
2022-09-26T17:14:19.395Z,11.70
2022-09-26T17:16:50.487Z,11.60
2022-09-26T17:19:19.373Z,11.50
2022-09-26T17:21:49.225Z,11.40
2022-09-26T17:24:20.003Z,11.40
2022-09-26T17:26:53.283Z,11.30
2022-09-26T17:29:26.447Z,11.30
2022-09-26T17:31:55.975Z,11.30
2022-09-26T17:34:25.528Z,11.30
2022-09-26T17:36:55.409Z,11.30
2022-09-26T17:39:25.899Z,11.30
2022-09-26T17:41:54.869Z,11.30
2022-09-26T17:44:24.596Z,11.30
2022-09-26T17:46:54.910Z,11.30
2022-09-26T17:49:26.954Z,11.30
2022-09-26T17:51:56.370Z,11.40
2022-09-26T17:54:30.724Z,11.20
2022-09-26T17:56:59.485Z,11.30
2022-09-26T17:59:29.724Z,11.30
2022-09-26T18:02:01.697Z,11.30
2022-09-26T18:04:31.465Z,11.30
2022-09-26T18:07:04.595Z,11.30
2022-09-26T18:09:35.215Z,11.30
2022-09-26T18:12:04.898Z,11.20
2022-09-26T18:14:35.471Z,11.20
2022-09-26T18:17:04.415Z,11.20
2022-09-26T18:19:32.410Z,11.20
2022-09-26T18:22:00.301Z,11.30
2022-09-26T18:24:30.604Z,11.30
2022-09-26T18:27:04.192Z,11.30
2022-09-26T18:29:36.480Z,11.40
2022-09-26T18:32:07.161Z,11.40
2022-09-26T18:34:35.130Z,11.40
2022-09-26T18:37:03.476Z,11.40
2022-09-26T18:39:33.190Z,11.50
2022-09-26T18:42:03.768Z,11.60
2022-09-26T18:44:35.288Z,11.60
2022-09-26T18:47:05.918Z,11.60
2022-09-26T18:49:35.495Z,11.60
2022-09-26T18:52:03.875Z,11.60
2022-09-26T18:54:33.996Z,11.70
2022-09-26T18:57:19.654Z,11.70
2022-09-26T18:59:49.035Z,11.80
2022-09-26T19:02:22.593Z,11.80
2022-09-26T19:04:51.409Z,11.80
2022-09-26T19:07:21.448Z,11.90
2022-09-26T19:09:50.757Z,11.80
2022-09-26T19:12:18.738Z,11.80
2022-09-26T19:14:48.242Z,11.70
2022-09-26T19:17:16.160Z,11.80
2022-09-26T19:19:44.337Z,11.70
2022-09-26T19:22:16.045Z,11.70
2022-09-26T19:24:47.969Z,11.70
2022-09-26T19:27:19.890Z,11.60
2022-09-26T19:29:55.488Z,11.60
2022-09-26T19:32:28.191Z,11.50
2022-09-26T19:35:00.715Z,11.50
2022-09-26T19:37:29.184Z,11.50
2022-09-26T19:39:58.601Z,11.40
2022-09-26T19:42:27.233Z,11.40
2022-09-26T19:44:59.572Z,11.40
2022-09-26T19:47:34.843Z,11.40
2022-09-26T19:50:07.072Z,11.40
2022-09-26T19:52:35.729Z,11.30
2022-09-26T19:55:03.799Z,11.40
2022-09-26T19:57:31.875Z,11.30
2022-09-26T20:00:01.350Z,11.30
2022-09-26T20:02:33.040Z,11.30
2022-09-26T20:05:01.161Z,11.30
2022-09-26T20:07:29.122Z,11.30
2022-09-26T20:09:58.493Z,11.30
2022-09-26T20:12:26.551Z,11.30
2022-09-26T20:14:54.519Z,11.30
2022-09-26T20:17:26.898Z,11.30
2022-09-26T20:19:58.975Z,11.30
2022-09-26T20:22:27.335Z,11.30
2022-09-26T20:24:56.157Z,11.30
2022-09-26T20:27:27.940Z,11.30
2022-09-26T20:30:14.765Z,11.40
2022-09-26T20:32:44.160Z,11.40
2022-09-26T20:35:15.368Z,11.40
2022-09-26T20:37:44.226Z,11.40
2022-09-26T20:40:18.135Z,11.40
2022-09-26T20:42:49.867Z,11.40
2022-09-26T20:45:20.735Z,11.40
2022-09-26T20:47:50.078Z,11.40
2022-09-26T20:50:20.774Z,11.40
2022-09-26T20:52:48.806Z,11.40
2022-09-26T20:55:18.141Z,11.40
2022-09-26T20:57:46.651Z,11.40
2022-09-26T21:00:16.891Z,11.50
2022-09-26T21:02:46.026Z,11.40
2022-09-26T21:05:20.573Z,11.50
2022-09-26T21:07:48.661Z,11.50
2022-09-26T21:10:25.125Z,11.50
2022-09-26T21:12:53.475Z,11.50
2022-09-26T21:15:21.826Z,11.60
2022-09-26T21:17:51.068Z,11.50
2022-09-26T21:20:25.677Z,11.50
2022-09-26T21:22:54.523Z,11.50
2022-09-26T21:25:24.069Z,11.50
2022-09-26T21:27:55.213Z,11.50
2022-09-26T21:30:23.318Z,11.50
2022-09-26T21:32:54.046Z,11.40
2022-09-26T21:35:25.467Z,11.40
2022-09-26T21:37:55.707Z,11.40
2022-09-26T21:40:27.155Z,11.30
2022-09-26T21:42:59.266Z,11.30
2022-09-26T21:45:27.918Z,11.30
2022-09-26T21:47:56.709Z,11.30
2022-09-26T21:50:29.006Z,11.30
2022-09-26T21:53:02.871Z,11.20
2022-09-26T21:55:33.801Z,11.20
2022-09-26T21:58:06.742Z,11.20
2022-09-26T22:00:34.707Z,11.20
2022-09-26T22:03:02.781Z,11.20
2022-09-26T22:05:32.539Z,11.30
2022-09-26T22:08:00.666Z,11.20
2022-09-26T22:10:29.381Z,11.20
2022-09-26T22:12:57.646Z,11.20
2022-09-26T22:15:25.676Z,11.20
2022-09-26T22:17:54.427Z,11.20
2022-09-26T22:20:22.706Z,11.20
2022-09-26T22:22:52.162Z,11.30
2022-09-26T22:25:20.070Z,11.30
2022-09-26T22:27:48.147Z,11.30
2022-09-26T22:30:16.272Z,11.30
2022-09-26T22:32:44.436Z,11.30
2022-09-26T22:35:12.483Z,11.30
2022-09-26T22:37:40.394Z,11.30
2022-09-26T22:40:10.533Z,11.30
2022-09-26T22:42:38.673Z,11.30
2022-09-26T22:45:07.261Z,11.30
2022-09-26T22:47:35.273Z,11.30
2022-09-26T22:50:03.250Z,11.30
2022-09-26T22:52:31.302Z,11.30
2022-09-26T22:54:59.126Z,11.30
2022-09-26T22:57:29.124Z,11.30
2022-09-26T22:59:57.298Z,11.30
2022-09-26T23:02:26.337Z,11.30
2022-09-26T23:04:54.288Z,11.40
2022-09-26T23:07:22.505Z,11.30
2022-09-26T23:09:50.603Z,11.30
2022-09-26T23:12:19.072Z,11.30
2022-09-26T23:14:48.459Z,11.30
2022-09-26T23:17:17.469Z,11.30
2022-09-26T23:19:45.598Z,11.30
2022-09-26T23:22:14.251Z,11.30
2022-09-26T23:24:42.352Z,11.40
2022-09-26T23:27:10.772Z,11.40
2022-09-26T23:29:38.674Z,11.40
2022-09-26T23:32:08.252Z,11.40
2022-09-26T23:34:36.272Z,11.30
2022-09-26T23:37:04.484Z,11.40
2022-09-26T23:39:32.450Z,11.30
2022-09-26T23:42:00.384Z,11.30
2022-09-26T23:44:28.333Z,11.40
2022-09-26T23:46:56.256Z,11.40
2022-09-26T23:49:25.591Z,11.40
2022-09-26T23:51:53.699Z,11.40
2022-09-26T23:54:21.653Z,11.40
2022-09-26T23:56:49.582Z,11.40
2022-09-26T23:59:17.502Z,11.40
